Presidio of San Francisco, California
Current Conditions -  °F | °C
As of 1:56 AM on Saturday 25 Oct 2014 (Local Time) from KSFO Reporting Station
Overcast Overcast  
Wind Chill: 70°   Ceiling: 5500
Heat Index: 70°   Visibility: 10mi
Dew Point: 56°   Wind: 14mph
Humidity: 61%   Direction: 160°SSE
Pressure: 29.91"   Gusts: 24mph
Location:  37.7976°N, 122.466°W
Report Text: KSFO 250856Z 16012G21KT 10SM OVC055 21/13 A2991 RMK AO2 SLP127 T02110133 58007 $
Loading
Personal Weather Stations






























Interactive Weather Map
Tropical Storm Tracking
New forecast layout! Learn more

10-Day Weather Forecast

Advertisements
Track Severe Weather on mobile